createdAt,value
2023-02-18T06:43:23.163Z,160.00
2023-02-18T06:44:25.176Z,228.00
2023-02-18T06:45:27.198Z,200.00
2023-02-18T06:46:29.256Z,180.00
2023-02-18T06:47:31.250Z,196.00
2023-02-18T06:48:33.258Z,168.00
2023-02-18T06:49:35.315Z,268.00
2023-02-18T06:50:37.326Z,336.00
2023-02-18T06:51:39.336Z,540.00
2023-02-18T06:52:41.367Z,600.00
2023-02-18T06:53:43.375Z,620.00
2023-02-18T06:54:45.415Z,664.00
2023-02-18T06:55:47.407Z,868.00
2023-02-18T06:56:49.468Z,948.00
2023-02-18T06:57:51.484Z,952.00
2023-02-18T06:58:53.487Z,808.00
2023-02-18T06:59:55.502Z,740.00
2023-02-18T07:00:57.524Z,768.00
2023-02-18T07:01:59.546Z,716.00
2023-02-18T07:03:01.556Z,620.00
2023-02-18T07:04:03.647Z,744.00
2023-02-18T07:05:05.655Z,968.00
2023-02-18T07:06:08.053Z,960.00
2023-02-18T07:07:09.088Z,768.00
2023-02-18T07:08:11.116Z,680.00
2023-02-18T07:09:13.142Z,1000.00
2023-02-18T07:10:15.156Z,1116.00
2023-02-18T07:11:17.160Z,1328.00
2023-02-18T07:12:19.176Z,1276.00
2023-02-18T07:13:21.282Z,1224.00
2023-02-18T07:14:23.329Z,1184.00
2023-02-18T07:15:25.348Z,1148.00
2023-02-18T07:16:27.390Z,1000.00
2023-02-18T07:17:29.406Z,960.00
2023-02-18T07:18:31.418Z,1012.00
2023-02-18T07:19:33.448Z,1024.00
2023-02-18T07:20:35.509Z,1060.00
2023-02-18T07:21:37.530Z,1232.00
2023-02-18T07:22:39.554Z,1132.00
2023-02-18T07:23:41.582Z,972.00
2023-02-18T07:24:43.589Z,984.00
2023-02-18T07:25:45.640Z,1036.00
2023-02-18T07:26:47.657Z,912.00
2023-02-18T07:27:49.681Z,1044.00
2023-02-18T07:28:51.693Z,1180.00
2023-02-18T07:29:53.700Z,1272.00
2023-02-18T07:30:55.787Z,1464.00
2023-02-18T07:31:57.915Z,1316.00
2023-02-18T07:33:00.770Z,1296.00
2023-02-18T07:34:01.230Z,1232.00
2023-02-18T07:35:03.276Z,1140.00
2023-02-18T07:36:05.363Z,1128.00
2023-02-18T07:37:07.406Z,1440.00
2023-02-18T07:38:09.445Z,1668.00
2023-02-18T07:39:11.485Z,1680.00
2023-02-18T07:40:13.523Z,1468.00
2023-02-18T07:41:15.551Z,1696.00
2023-02-18T07:42:17.617Z,1524.00
2023-02-18T07:43:19.614Z,1268.00
2023-02-18T07:44:21.640Z,1660.00
2023-02-18T07:45:23.712Z,2000.00
2023-02-18T07:46:25.732Z,2300.00
2023-02-18T07:47:27.774Z,2800.00
2023-02-18T07:48:29.807Z,3060.00
2023-02-18T07:49:31.845Z,3056.00
2023-02-18T07:50:33.864Z,2120.00
2023-02-18T07:51:35.914Z,2100.00
2023-02-18T07:52:37.951Z,2740.00
2023-02-18T07:53:39.996Z,2968.00
2023-02-18T07:54:42.013Z,3292.00
2023-02-18T07:55:44.053Z,3324.00
2023-02-18T07:56:46.100Z,3452.00
2023-02-18T07:57:48.119Z,2836.00
2023-02-18T07:58:50.143Z,2396.00
2023-02-18T07:59:52.176Z,2132.00
2023-02-18T08:00:54.189Z,2080.00
2023-02-18T08:01:56.241Z,2432.00
2023-02-18T08:02:58.255Z,2552.00
2023-02-18T08:04:00.309Z,2012.00
2023-02-18T08:05:02.321Z,1892.00
2023-02-18T08:06:04.337Z,2592.00
2023-02-18T08:07:06.357Z,3076.00
2023-02-18T08:08:08.376Z,3152.00
2023-02-18T08:09:10.407Z,2576.00
2023-02-18T08:10:12.427Z,2380.00
2023-02-18T08:11:19.425Z,2336.00
2023-02-18T08:12:15.909Z,2360.00
2023-02-18T08:13:17.947Z,2148.00
2023-02-18T08:14:19.968Z,2220.00
2023-02-18T08:15:21.994Z,2256.00
2023-02-18T08:16:24.065Z,2368.00
2023-02-18T08:17:26.104Z,1904.00
2023-02-18T08:18:28.120Z,1848.00
2023-02-18T08:19:30.156Z,1816.00
2023-02-18T08:20:32.196Z,1636.00
2023-02-18T08:21:34.218Z,1812.00
2023-02-18T08:22:36.268Z,2032.00
2023-02-18T08:23:37.367Z,2196.00
2023-02-18T08:24:39.364Z,2480.00
2023-02-18T08:25:41.394Z,2792.00
2023-02-18T08:26:58.239Z,2940.00
2023-02-18T08:27:44.917Z,3100.00
2023-02-18T08:28:46.957Z,3164.00
2023-02-18T08:29:48.985Z,3124.00
2023-02-18T08:30:51.018Z,3132.00
2023-02-18T08:31:53.109Z,2616.00
2023-02-18T08:32:55.145Z,2072.00
2023-02-18T08:33:57.134Z,1552.00
2023-02-18T08:34:59.153Z,1408.00
2023-02-18T08:36:01.189Z,1440.00
2023-02-18T08:37:03.230Z,1640.00
2023-02-18T08:38:05.279Z,1496.00
2023-02-18T08:39:07.294Z,1428.00
2023-02-18T08:40:09.300Z,1520.00
2023-02-18T08:41:11.462Z,1616.00
2023-02-18T08:42:13.540Z,1956.00
2023-02-18T08:43:15.615Z,2076.00
2023-02-18T08:44:17.626Z,2288.00
2023-02-18T08:45:19.664Z,1708.00
2023-02-18T08:46:31.612Z,2320.00
2023-02-18T08:48:17.979Z,2284.00
2023-02-18T08:48:24.773Z,2164.00
2023-02-18T08:49:25.822Z,2408.00
2023-02-18T08:50:27.292Z,2312.00
2023-02-18T08:51:29.334Z,2340.00
2023-02-18T08:52:31.371Z,2552.00
2023-02-18T08:53:33.405Z,2724.00
2023-02-18T08:54:35.413Z,3308.00
2023-02-18T08:55:37.455Z,4396.00
2023-02-18T08:56:39.525Z,5708.00
2023-02-18T08:57:41.536Z,6076.00
2023-02-18T08:58:43.567Z,5276.00
2023-02-18T08:59:45.581Z,3992.00
2023-02-18T09:00:47.606Z,3440.00
2023-02-18T09:01:49.700Z,2976.00
2023-02-18T09:02:51.695Z,2980.00
2023-02-18T09:03:53.778Z,2860.00
2023-02-18T09:04:55.774Z,2888.00
2023-02-18T09:05:57.803Z,3252.00
2023-02-18T09:06:59.838Z,3304.00
2023-02-18T09:08:01.871Z,3148.00
2023-02-18T09:09:03.885Z,2768.00
2023-02-18T09:10:05.911Z,3308.00
2023-02-18T09:11:08.339Z,3476.00
2023-02-18T09:12:09.349Z,3624.00
2023-02-18T09:13:11.386Z,3536.00
2023-02-18T09:14:13.423Z,3024.00
2023-02-18T09:15:15.474Z,3008.00
2023-02-18T09:16:17.497Z,3028.00
2023-02-18T09:17:19.510Z,2904.00
2023-02-18T09:18:21.529Z,2900.00
2023-02-18T09:19:24.505Z,2840.00
2023-02-18T09:20:25.451Z,2944.00
2023-02-18T09:21:27.462Z,3088.00
2023-02-18T09:22:29.501Z,3156.00
2023-02-18T09:23:31.536Z,3120.00
2023-02-18T09:24:33.551Z,2648.00
2023-02-18T09:25:35.560Z,2688.00
2023-02-18T09:26:37.582Z,2164.00
2023-02-18T09:27:39.604Z,2312.00
2023-02-18T09:28:41.611Z,2628.00
2023-02-18T09:29:43.707Z,2416.00
2023-02-18T09:30:45.747Z,2580.00
2023-02-18T09:31:47.863Z,2596.00
2023-02-18T09:32:49.866Z,2536.00
2023-02-18T09:33:51.881Z,2548.00
2023-02-18T09:34:53.911Z,2488.00
2023-02-18T09:35:55.950Z,2740.00
2023-02-18T09:36:57.977Z,3212.00
2023-02-18T09:37:59.994Z,3208.00
2023-02-18T09:39:02.026Z,3112.00
2023-02-18T09:40:04.084Z,3188.00
2023-02-18T09:41:16.452Z,3796.00
2023-02-18T09:42:07.472Z,3796.00
2023-02-18T09:43:09.500Z,4016.00
2023-02-18T09:44:11.527Z,3864.00
2023-02-18T09:45:13.559Z,4184.00
2023-02-18T09:46:15.618Z,4028.00
2023-02-18T09:47:17.605Z,4452.00
2023-02-18T09:48:19.642Z,4828.00
2023-02-18T09:49:21.683Z,5392.00
2023-02-18T09:50:23.735Z,4844.00
2023-02-18T09:51:25.732Z,5360.00
2023-02-18T09:52:27.772Z,6644.00
2023-02-18T09:53:29.815Z,7440.00
2023-02-18T09:54:31.854Z,7448.00
2023-02-18T09:55:33.883Z,6612.00
2023-02-18T09:56:35.923Z,7472.00
2023-02-18T09:57:37.965Z,8240.00
2023-02-18T09:58:39.985Z,8180.00
2023-02-18T09:59:42.030Z,6732.00
2023-02-18T10:00:44.060Z,6272.00
2023-02-18T10:01:46.117Z,6324.00
2023-02-18T10:02:48.144Z,7796.00
2023-02-18T10:03:50.159Z,8512.00
2023-02-18T10:04:52.214Z,8648.00
2023-02-18T10:05:54.251Z,9832.00
2023-02-18T10:06:56.273Z,10152.00
2023-02-18T10:07:58.306Z,10168.00
2023-02-18T10:09:00.328Z,9724.00
2023-02-18T10:10:02.355Z,8948.00
2023-02-18T10:11:04.412Z,8960.00
2023-02-18T10:12:06.428Z,9068.00
2023-02-18T10:13:08.537Z,10024.00
2023-02-18T10:14:10.542Z,9776.00
2023-02-18T10:15:12.566Z,9932.00
2023-02-18T10:16:14.650Z,11892.00
2023-02-18T10:17:16.672Z,13800.00
2023-02-18T10:18:18.759Z,14824.00
2023-02-18T10:19:20.776Z,15520.00
2023-02-18T10:20:22.836Z,15208.00
2023-02-18T10:21:24.852Z,14668.00
2023-02-18T10:22:26.872Z,15444.00
2023-02-18T10:23:28.900Z,16040.00
2023-02-18T10:24:30.940Z,16152.00
2023-02-18T10:25:32.980Z,15504.00
2023-02-18T10:26:35.014Z,15124.00
2023-02-18T10:27:37.030Z,13324.00
2023-02-18T10:28:39.054Z,11704.00
2023-02-18T10:29:41.131Z,9148.00
2023-02-18T10:30:43.168Z,5892.00
2023-02-18T10:31:45.796Z,5440.00
2023-02-18T10:32:46.749Z,7156.00
2023-02-18T10:33:48.773Z,7276.00
2023-02-18T10:34:50.833Z,6628.00
2023-02-18T10:35:52.862Z,4608.00
2023-02-18T10:36:54.915Z,4240.00
2023-02-18T10:37:56.932Z,5164.00
2023-02-18T10:38:58.973Z,5332.00
2023-02-18T10:40:00.993Z,6184.00
2023-02-18T10:41:03.042Z,6132.00
2023-02-18T10:42:05.068Z,6692.00
2023-02-18T10:43:07.097Z,4644.00
2023-02-18T10:44:09.129Z,4988.00
2023-02-18T10:45:11.146Z,4400.00
2023-02-18T10:46:13.802Z,3648.00
2023-02-18T10:47:14.796Z,4548.00
2023-02-18T10:48:16.832Z,6152.00
2023-02-18T10:49:18.853Z,6436.00
2023-02-18T10:50:21.032Z,6796.00
2023-02-18T10:51:23.054Z,6528.00
2023-02-18T10:52:25.096Z,5628.00
2023-02-18T10:53:27.120Z,5372.00
2023-02-18T10:54:29.148Z,5264.00
2023-02-18T10:55:31.187Z,4344.00
2023-02-18T10:56:33.238Z,3700.00
2023-02-18T10:57:35.263Z,4356.00
2023-02-18T10:58:37.304Z,3820.00
2023-02-18T10:59:39.366Z,3948.00
2023-02-18T11:00:41.386Z,4208.00
2023-02-18T11:01:43.445Z,4704.00
2023-02-18T11:02:45.497Z,4568.00
2023-02-18T11:03:47.508Z,4384.00
2023-02-18T11:04:49.602Z,4364.00
2023-02-18T11:05:51.633Z,4244.00
2023-02-18T11:06:53.643Z,3856.00
2023-02-18T11:07:55.671Z,4688.00
2023-02-18T11:08:57.715Z,4088.00
2023-02-18T11:09:59.748Z,3952.00
2023-02-18T11:11:01.778Z,3612.00
2023-02-18T11:12:08.626Z,3032.00
2023-02-18T11:13:05.278Z,3304.00
2023-02-18T11:14:07.305Z,3800.00
2023-02-18T11:15:09.304Z,4016.00
2023-02-18T11:16:11.385Z,2748.00
2023-02-18T11:17:13.360Z,3056.00
2023-02-18T11:18:15.401Z,3392.00
2023-02-18T11:19:17.441Z,4016.00
2023-02-18T11:20:19.465Z,3364.00
2023-02-18T11:21:21.745Z,3444.00
2023-02-18T11:22:23.599Z,4084.00
2023-02-18T11:23:24.520Z,4620.00
2023-02-18T11:24:26.539Z,5024.00
2023-02-18T11:25:28.563Z,4832.00
2023-02-18T11:26:30.579Z,3604.00
2023-02-18T11:27:32.595Z,3716.00
2023-02-18T11:28:34.613Z,4164.00
2023-02-18T11:29:36.606Z,4128.00
2023-02-18T11:30:38.731Z,3468.00
2023-02-18T11:31:40.923Z,3876.00
2023-02-18T11:32:42.966Z,4592.00
2023-02-18T11:33:45.054Z,4832.00
2023-02-18T11:34:47.104Z,4136.00
2023-02-18T11:35:49.121Z,4256.00
2023-02-18T11:36:51.134Z,5084.00
2023-02-18T11:37:53.166Z,3784.00
2023-02-18T11:38:55.208Z,4140.00
2023-02-18T11:39:57.309Z,3344.00
2023-02-18T11:40:59.349Z,4284.00
2023-02-18T11:42:01.406Z,4252.00
2023-02-18T11:43:03.438Z,3696.00
2023-02-18T11:44:05.484Z,3472.00
2023-02-18T11:45:07.515Z,4028.00
2023-02-18T11:46:09.535Z,4560.00
2023-02-18T11:47:11.560Z,4184.00
2023-02-18T11:48:13.557Z,3980.00
2023-02-18T11:49:15.580Z,3216.00
2023-02-18T11:50:17.595Z,3352.00
2023-02-18T11:51:19.609Z,3812.00
2023-02-18T11:52:21.627Z,4384.00
2023-02-18T11:53:23.645Z,3364.00
2023-02-18T11:54:25.651Z,3668.00
2023-02-18T11:55:27.718Z,3472.00
2023-02-18T11:56:29.716Z,3552.00
2023-02-18T11:57:31.818Z,4420.00
2023-02-18T11:58:33.839Z,4712.00
2023-02-18T11:59:35.943Z,4540.00
2023-02-18T12:00:37.945Z,5252.00
2023-02-18T12:01:39.972Z,6096.00
2023-02-18T12:02:42.021Z,5844.00
2023-02-18T12:03:44.061Z,4492.00
2023-02-18T12:04:46.134Z,4260.00
2023-02-18T12:05:48.133Z,4936.00
2023-02-18T12:06:50.159Z,5580.00
2023-02-18T12:07:52.183Z,5396.00
2023-02-18T12:08:54.186Z,6780.00
2023-02-18T12:09:56.299Z,6340.00
2023-02-18T12:10:58.335Z,5124.00
2023-02-18T12:12:00.391Z,7116.00
2023-02-18T12:13:02.438Z,6240.00
2023-02-18T12:14:04.465Z,5540.00
2023-02-18T12:15:06.519Z,5716.00
2023-02-18T12:16:07.620Z,6364.00
2023-02-18T12:17:09.770Z,6244.00
2023-02-18T12:18:11.913Z,4556.00
2023-02-18T12:19:13.951Z,5268.00
2023-02-18T12:20:15.963Z,6480.00
2023-02-18T12:21:17.995Z,6284.00
2023-02-18T12:22:20.030Z,6960.00
2023-02-18T12:23:22.045Z,6536.00
2023-02-18T12:24:24.066Z,3852.00
2023-02-18T12:25:26.084Z,4976.00
2023-02-18T12:26:28.098Z,3404.00
2023-02-18T12:27:30.134Z,2736.00
2023-02-18T12:28:32.143Z,2152.00
2023-02-18T12:29:36.053Z,2784.00
2023-02-18T12:30:35.977Z,4352.00
2023-02-18T12:31:38.058Z,5560.00
2023-02-18T12:32:40.084Z,4552.00
2023-02-18T12:33:42.136Z,5840.00
2023-02-18T12:34:44.157Z,5544.00
2023-02-18T12:35:46.217Z,5980.00
2023-02-18T12:36:48.259Z,6032.00
2023-02-18T12:37:50.264Z,5604.00
2023-02-18T12:38:52.277Z,4764.00
2023-02-18T12:39:54.285Z,4724.00
2023-02-18T12:40:56.322Z,4232.00
2023-02-18T12:41:58.343Z,5948.00
2023-02-18T12:43:00.373Z,5616.00
2023-02-18T12:44:02.419Z,4944.00
2023-02-18T12:45:04.452Z,4936.00
2023-02-18T12:46:06.611Z,4576.00
2023-02-18T12:47:08.600Z,3788.00
2023-02-18T12:48:10.630Z,3984.00
2023-02-18T12:49:12.651Z,5864.00
2023-02-18T12:50:14.670Z,5812.00
2023-02-18T12:51:16.715Z,5384.00
2023-02-18T12:52:18.741Z,3360.00
2023-02-18T12:53:20.748Z,3604.00
2023-02-18T12:54:22.780Z,6196.00
2023-02-18T12:55:24.795Z,6604.00
2023-02-18T12:56:26.847Z,7044.00
2023-02-18T12:57:28.862Z,5868.00
2023-02-18T12:58:30.895Z,6356.00
2023-02-18T12:59:32.916Z,7632.00
2023-02-18T13:00:34.946Z,8148.00
2023-02-18T13:01:36.984Z,8232.00
2023-02-18T13:02:39.002Z,7700.00
2023-02-18T13:03:41.042Z,5180.00
2023-02-18T13:04:43.052Z,6480.00
2023-02-18T13:05:45.080Z,7232.00
2023-02-18T13:06:47.098Z,6296.00
2023-02-18T13:07:49.114Z,6864.00
2023-02-18T13:08:51.144Z,5348.00
2023-02-18T13:09:53.188Z,3296.00
2023-02-18T13:10:55.194Z,3312.00
2023-02-18T13:11:57.214Z,2628.00
2023-02-18T13:12:59.225Z,2116.00
2023-02-18T13:14:01.266Z,3724.00
2023-02-18T13:15:03.270Z,4244.00
2023-02-18T13:16:05.320Z,3028.00
2023-02-18T13:17:07.326Z,4500.00
2023-02-18T13:18:09.336Z,4680.00
2023-02-18T13:19:11.390Z,4360.00
2023-02-18T13:20:13.373Z,4624.00
2023-02-18T13:21:15.386Z,4092.00
2023-02-18T13:22:17.446Z,3884.00
2023-02-18T13:23:19.460Z,4104.00
2023-02-18T13:24:21.468Z,3712.00
2023-02-18T13:25:23.513Z,3964.00
2023-02-18T13:26:25.529Z,3928.00
2023-02-18T13:27:27.538Z,4020.00
2023-02-18T13:28:29.533Z,3768.00
2023-02-18T13:29:31.550Z,4684.00
2023-02-18T13:30:33.614Z,3792.00
2023-02-18T13:31:35.763Z,4012.00
2023-02-18T13:32:37.770Z,4952.00
2023-02-18T13:33:39.773Z,4480.00
2023-02-18T13:34:41.807Z,3588.00
2023-02-18T13:35:43.802Z,3556.00
2023-02-18T13:36:45.820Z,4956.00
2023-02-18T13:37:47.888Z,3996.00
2023-02-18T13:38:49.910Z,4864.00
2023-02-18T13:39:51.907Z,4844.00
2023-02-18T13:40:53.922Z,5028.00
2023-02-18T13:41:55.946Z,4240.00
2023-02-18T13:42:58.022Z,3332.00
2023-02-18T13:44:00.052Z,3528.00
2023-02-18T13:45:02.049Z,4204.00
2023-02-18T13:46:04.172Z,4044.00
2023-02-18T13:47:06.158Z,3516.00
2023-02-18T13:48:08.179Z,3468.00
2023-02-18T13:49:10.206Z,3340.00
2023-02-18T13:50:12.216Z,3600.00
2023-02-18T13:51:14.241Z,3480.00
2023-02-18T13:52:16.267Z,3488.00
2023-02-18T13:53:18.289Z,2940.00
2023-02-18T13:54:20.312Z,3372.00
2023-02-18T13:55:22.319Z,2620.00
2023-02-18T13:56:24.347Z,4164.00
2023-02-18T13:57:26.364Z,4672.00
2023-02-18T13:58:29.127Z,4984.00
2023-02-18T13:59:30.043Z,3520.00
2023-02-18T14:00:32.046Z,3068.00
2023-02-18T14:01:34.057Z,3724.00
2023-02-18T14:02:36.208Z,3228.00
2023-02-18T14:03:38.268Z,3108.00
2023-02-18T14:04:40.271Z,2988.00
2023-02-18T14:05:42.301Z,4472.00
2023-02-18T14:06:44.314Z,4380.00
2023-02-18T14:07:46.330Z,4412.00
2023-02-18T14:08:48.381Z,3900.00
2023-02-18T14:09:50.379Z,3028.00
2023-02-18T14:10:52.372Z,2728.00
2023-02-18T14:11:54.405Z,2500.00
2023-02-18T14:12:56.414Z,2548.00
2023-02-18T14:13:58.449Z,2408.00
2023-02-18T14:15:00.486Z,2804.00
2023-02-18T14:16:02.579Z,2956.00
2023-02-18T14:17:04.590Z,2900.00
2023-02-18T14:18:06.607Z,3212.00
2023-02-18T14:19:08.631Z,2876.00
2023-02-18T14:20:10.648Z,3596.00
2023-02-18T14:21:12.693Z,3612.00
2023-02-18T14:22:14.733Z,3676.00
2023-02-18T14:23:16.754Z,3844.00
2023-02-18T14:24:18.813Z,3804.00
2023-02-18T14:25:20.842Z,3748.00
2023-02-18T14:26:22.853Z,4028.00
2023-02-18T14:27:24.879Z,4120.00
2023-02-18T14:28:26.901Z,3164.00
2023-02-18T14:29:28.944Z,3884.00
2023-02-18T14:30:30.999Z,5824.00
2023-02-18T14:31:33.043Z,4120.00
2023-02-18T14:32:35.054Z,3656.00
2023-02-18T14:33:37.069Z,4268.00
2023-02-18T14:34:39.123Z,5772.00
2023-02-18T14:35:41.142Z,5516.00
2023-02-18T14:36:43.163Z,6484.00
2023-02-18T14:37:45.208Z,5704.00
2023-02-18T14:38:47.239Z,4840.00
2023-02-18T14:39:49.330Z,4216.00
2023-02-18T14:40:51.374Z,2740.00
2023-02-18T14:41:55.765Z,2532.00
2023-02-18T14:42:54.560Z,2460.00
2023-02-18T14:43:56.598Z,2036.00
2023-02-18T14:44:59.042Z,2020.00
2023-02-18T14:45:59.982Z,2820.00
2023-02-18T14:47:02.005Z,2892.00
2023-02-18T14:48:14.596Z,2368.00
2023-02-18T14:49:05.732Z,2376.00
2023-02-18T14:50:07.751Z,2540.00
2023-02-18T14:51:10.138Z,3420.00
2023-02-18T14:52:11.304Z,4400.00
2023-02-18T14:53:13.348Z,3960.00
2023-02-18T14:54:15.376Z,4804.00
2023-02-18T14:55:17.422Z,5232.00
2023-02-18T14:56:19.441Z,4968.00
2023-02-18T14:57:21.453Z,5152.00
2023-02-18T14:58:23.472Z,4224.00
2023-02-18T14:59:25.500Z,4292.00
2023-02-18T15:00:27.541Z,4468.00
2023-02-18T15:01:29.584Z,4500.00
2023-02-18T15:02:31.590Z,4392.00
2023-02-18T15:03:33.624Z,3016.00
2023-02-18T15:04:35.642Z,2724.00
2023-02-18T15:05:37.676Z,3516.00
2023-02-18T15:06:39.706Z,4048.00
2023-02-18T15:07:41.732Z,4284.00
2023-02-18T15:08:43.764Z,3636.00
2023-02-18T15:09:45.878Z,3024.00
2023-02-18T15:10:47.898Z,2900.00
2023-02-18T15:11:49.935Z,2956.00
2023-02-18T15:12:51.948Z,2792.00
2023-02-18T15:13:53.987Z,2820.00
2023-02-18T15:14:56.010Z,2884.00
2023-02-18T15:15:58.102Z,3196.00
2023-02-18T15:17:00.113Z,2752.00
2023-02-18T15:18:02.132Z,2900.00
2023-02-18T15:19:04.168Z,2300.00
2023-02-18T15:20:06.186Z,2264.00
2023-02-18T15:21:08.675Z,2008.00
2023-02-18T15:22:09.723Z,2148.00
2023-02-18T15:23:11.752Z,2116.00
2023-02-18T15:24:13.780Z,2172.00
2023-02-18T15:25:15.815Z,2040.00
2023-02-18T15:26:17.869Z,1800.00
2023-02-18T15:27:19.904Z,1724.00
2023-02-18T15:28:21.946Z,1572.00
2023-02-18T15:29:23.968Z,1592.00
2023-02-18T15:30:26.037Z,1548.00
2023-02-18T15:31:28.141Z,1440.00
2023-02-18T15:32:30.255Z,1352.00
2023-02-18T15:33:32.248Z,1320.00
2023-02-18T15:34:34.311Z,1460.00
2023-02-18T15:35:36.335Z,1320.00
2023-02-18T15:36:38.365Z,1124.00
2023-02-18T15:37:40.392Z,1036.00
2023-02-18T15:38:42.397Z,1032.00
2023-02-18T15:39:44.420Z,1068.00
2023-02-18T15:40:46.423Z,984.00
2023-02-18T15:41:48.491Z,1048.00
2023-02-18T15:42:50.536Z,1032.00
2023-02-18T15:43:52.576Z,956.00
2023-02-18T15:44:54.651Z,884.00
2023-02-18T15:45:56.682Z,1016.00
2023-02-18T15:46:58.720Z,1140.00
2023-02-18T15:48:00.738Z,1076.00
2023-02-18T15:49:02.758Z,1124.00
2023-02-18T15:50:04.781Z,1076.00
2023-02-18T15:51:16.407Z,844.00
2023-02-18T15:52:08.253Z,784.00
2023-02-18T15:53:10.294Z,664.00
2023-02-18T15:54:12.335Z,696.00
2023-02-18T15:55:14.361Z,708.00
2023-02-18T15:56:16.366Z,692.00
2023-02-18T15:57:18.404Z,684.00
2023-02-18T15:58:20.444Z,640.00
2023-02-18T15:59:22.498Z,624.00
2023-02-18T16:00:24.584Z,612.00
2023-02-18T16:01:26.596Z,572.00
2023-02-18T16:02:28.620Z,500.00
2023-02-18T16:03:29.725Z,420.00
2023-02-18T16:04:31.734Z,356.00
2023-02-18T16:05:33.754Z,248.00
2023-02-18T16:06:35.769Z,260.00
2023-02-18T16:07:37.816Z,184.00
2023-02-18T16:08:39.852Z,200.00
2023-02-18T16:09:41.871Z,240.00
2023-02-18T16:10:43.894Z,232.00
2023-02-18T16:11:45.958Z,192.00
2023-02-18T16:12:47.960Z,200.00
2023-02-18T16:13:49.997Z,212.00
2023-02-18T16:14:52.058Z,184.00
2023-02-18T16:15:54.126Z,152.00
2023-02-18T16:16:56.136Z,152.00
2023-02-18T16:17:58.197Z,192.00
2023-02-18T16:19:00.223Z,184.00
2023-02-18T16:20:05.302Z,184.00
2023-02-18T16:21:04.414Z,152.00
2023-02-18T16:22:06.440Z,128.00
2023-02-18T16:23:08.479Z,128.00
2023-02-18T16:24:10.496Z,132.00
